createdAt,value
2017-10-21T00:00:59.506Z,10.65
2017-10-21T00:02:12.163Z,10.65
2017-10-21T00:03:24.462Z,10.64
2017-10-21T00:04:36.778Z,10.62
2017-10-21T00:05:48.733Z,10.68
2017-10-21T00:07:01.342Z,10.64
2017-10-21T00:08:13.666Z,10.67
2017-10-21T00:09:26.314Z,10.68
2017-10-21T00:10:39.185Z,10.69
2017-10-21T00:11:51.489Z,10.68
2017-10-21T00:13:04.103Z,10.68
2017-10-21T00:14:16.732Z,10.68
2017-10-21T00:15:29.393Z,10.64
2017-10-21T00:16:42.021Z,10.68
2017-10-21T00:17:54.673Z,10.69
2017-10-21T00:19:07.311Z,10.64
2017-10-21T00:20:19.603Z,10.67
2017-10-21T00:21:31.953Z,10.68
2017-10-21T00:22:44.551Z,10.68
2017-10-21T00:23:56.846Z,10.64
2017-10-21T00:25:09.479Z,10.71
2017-10-21T00:26:21.790Z,10.76
2017-10-21T00:27:34.150Z,10.76
2017-10-21T00:28:46.825Z,10.75
2017-10-21T00:29:59.117Z,10.76
2017-10-21T00:31:11.747Z,10.79
2017-10-21T00:32:24.304Z,10.79
2017-10-21T00:33:36.633Z,10.79
2017-10-21T00:34:49.269Z,10.83
2017-10-21T00:36:01.898Z,10.83
2017-10-21T00:37:13.899Z,10.83
2017-10-21T00:38:26.187Z,10.83
2017-10-21T00:39:38.165Z,10.84
2017-10-21T00:40:50.459Z,10.82
2017-10-21T00:42:03.081Z,10.86
2017-10-21T00:43:15.081Z,10.8
2017-10-21T00:44:27.396Z,10.9
2017-10-21T00:45:40.013Z,10.89
2017-10-21T00:46:52.650Z,10.94
2017-10-21T00:48:04.961Z,10.94
2017-10-21T00:49:17.605Z,10.94
2017-10-21T00:50:30.236Z,10.94
2017-10-21T00:51:42.869Z,10.95
2017-10-21T00:52:55.189Z,10.89
2017-10-21T00:54:08.134Z,10.94
2017-10-21T00:55:20.768Z,11.01
2017-10-21T00:56:33.416Z,10.92
2017-10-21T00:57:46.050Z,11
2017-10-21T00:58:58.387Z,11
2017-10-21T01:00:10.734Z,11.01
2017-10-21T01:01:23.071Z,10.87
2017-10-21T01:02:35.676Z,10.94
2017-10-21T01:03:48.302Z,11
2017-10-21T01:05:00.943Z,10.97
2017-10-21T01:06:12.928Z,10.98
2017-10-21T01:07:25.241Z,11.04
2017-10-21T01:08:37.255Z,10.98
2017-10-21T01:09:49.906Z,10.89
2017-10-21T01:11:02.536Z,10.92
2017-10-21T01:12:15.192Z,11.02
2017-10-21T01:13:27.814Z,10.89
2017-10-21T01:14:40.463Z,10.95
2017-10-21T01:15:53.079Z,10.95
2017-10-21T01:17:05.696Z,10.97
2017-10-21T01:18:18.017Z,11.04
2017-10-21T01:19:30.342Z,10.9
2017-10-21T01:20:42.990Z,10.92
2017-10-21T01:21:55.279Z,11.04
2017-10-21T01:23:07.941Z,10.97
2017-10-21T01:24:20.593Z,10.92
2017-10-21T01:25:33.246Z,10.94
2017-10-21T01:26:45.590Z,10.94
2017-10-21T01:27:58.202Z,10.86
2017-10-21T01:29:10.877Z,10.92
2017-10-21T01:30:23.510Z,10.86
2017-10-21T01:31:35.499Z,10.83
2017-10-21T01:32:47.806Z,10.86
2017-10-21T01:34:00.419Z,10.82
2017-10-21T01:35:13.026Z,10.76
2017-10-21T01:36:25.008Z,10.82
2017-10-21T01:37:37.303Z,10.82
2017-10-21T01:38:49.918Z,10.97
2017-10-21T01:40:01.888Z,10.77
2017-10-21T01:41:14.206Z,10.83
2017-10-21T01:42:26.826Z,10.83
2017-10-21T01:43:39.453Z,10.89
2017-10-21T01:44:51.448Z,10.75
2017-10-21T01:46:04.116Z,10.72
2017-10-21T01:47:16.737Z,10.76
2017-10-21T01:48:29.055Z,10.84
2017-10-21T01:49:41.361Z,10.75
2017-10-21T01:50:53.994Z,10.75
2017-10-21T01:52:06.652Z,10.72
2017-10-21T01:53:19.269Z,10.69
2017-10-21T01:54:31.932Z,10.67
2017-10-21T01:55:44.237Z,10.68
2017-10-21T01:56:56.888Z,10.67
2017-10-21T01:58:09.524Z,10.68
2017-10-21T01:59:22.172Z,10.61
2017-10-21T02:00:34.144Z,10.59
2017-10-21T02:01:46.454Z,10.53
2017-10-21T02:02:59.085Z,10.51
2017-10-21T02:04:11.737Z,10.48
2017-10-21T02:05:24.376Z,10.51
2017-10-21T02:06:36.694Z,10.58
2017-10-21T02:07:49.323Z,10.49
2017-10-21T02:09:01.942Z,10.43
2017-10-21T02:10:14.262Z,10.46
2017-10-21T02:11:26.917Z,10.42
2017-10-21T02:12:39.550Z,10.43
2017-10-21T02:13:52.173Z,10.48
2017-10-21T02:15:04.484Z,10.39
2017-10-21T02:16:17.085Z,10.43
2017-10-21T02:17:29.375Z,10.38
2017-10-21T02:18:42.023Z,10.34
2017-10-21T02:19:54.322Z,10.36
2017-10-21T02:21:07.208Z,10.38
2017-10-21T02:22:19.857Z,10.33
2017-10-21T02:23:32.496Z,10.33
2017-10-21T02:24:44.830Z,10.39
2017-10-21T02:25:56.806Z,10.3
2017-10-21T02:27:09.469Z,10.34
2017-10-21T02:28:22.068Z,10.28
2017-10-21T02:29:34.385Z,10.36
2017-10-21T02:30:47.013Z,10.38
2017-10-21T02:31:59.629Z,10.3
2017-10-21T02:33:12.248Z,10.3
2017-10-21T02:34:24.889Z,10.27
2017-10-21T02:35:37.213Z,10.25
2017-10-21T02:36:49.160Z,10.24
2017-10-21T02:38:01.833Z,10.18
2017-10-21T02:39:14.483Z,10.3
2017-10-21T02:40:27.123Z,10.25
2017-10-21T02:41:38.795Z,10.27
2017-10-21T02:42:50.814Z,10.21
2017-10-21T02:44:02.816Z,10.23
2017-10-21T02:45:15.116Z,10.24
2017-10-21T02:46:27.744Z,10.1
2017-10-21T02:47:39.724Z,10.13
2017-10-21T02:48:52.019Z,10.23
2017-10-21T02:50:04.642Z,10.18
2017-10-21T02:51:16.935Z,10.21
2017-10-21T02:52:29.257Z,10.15
2017-10-21T02:53:42.120Z,10.17
2017-10-21T02:54:54.428Z,10.18
2017-10-21T02:56:06.410Z,10.18
2017-10-21T02:57:19.066Z,10.1
2017-10-21T02:58:31.060Z,10.09
2017-10-21T02:59:43.363Z,10.12
2017-10-21T03:00:55.989Z,10.07
2017-10-21T03:02:07.643Z,10.02
2017-10-21T03:03:19.947Z,10.02
2017-10-21T03:04:32.557Z,9.99
2017-10-21T03:05:45.161Z,9.99
2017-10-21T03:06:57.783Z,9.97
2017-10-21T03:08:10.430Z,9.97
2017-10-21T03:09:22.745Z,9.85
2017-10-21T03:10:35.040Z,9.87
2017-10-21T03:11:47.335Z,9.85
2017-10-21T03:12:59.638Z,9.81
2017-10-21T03:14:11.946Z,9.74
2017-10-21T03:15:24.592Z,9.76
2017-10-21T03:16:37.215Z,9.74
2017-10-21T03:17:49.856Z,9.69
2017-10-21T03:19:02.502Z,9.67
2017-10-21T03:20:15.135Z,9.66
2017-10-21T03:21:27.780Z,9.56
2017-10-21T03:22:40.414Z,9.49
2017-10-21T03:23:53.086Z,9.54
2017-10-21T03:25:05.416Z,9.51
2017-10-21T03:26:18.063Z,9.47
2017-10-21T03:27:30.728Z,9.49
2017-10-21T03:28:43.038Z,9.45
2017-10-21T03:29:55.328Z,9.45
2017-10-21T03:31:07.967Z,9.45
2017-10-21T03:32:20.582Z,9.4
2017-10-21T03:33:32.872Z,9.36
2017-10-21T03:34:45.512Z,9.33
2017-10-21T03:35:58.124Z,9.33
2017-10-21T03:37:10.744Z,9.31
2017-10-21T03:38:23.382Z,9.36
2017-10-21T03:39:36.036Z,9.45
2017-10-21T03:40:48.678Z,9.36
2017-10-21T03:42:00.997Z,9.49
2017-10-21T03:43:13.329Z,9.45
2017-10-21T03:44:25.659Z,9.49
2017-10-21T03:45:37.990Z,9.49
2017-10-21T03:46:50.634Z,9.49
2017-10-21T03:48:03.265Z,9.54
2017-10-21T03:49:15.880Z,9.51
2017-10-21T03:50:27.856Z,9.56
2017-10-21T03:51:40.494Z,9.63
2017-10-21T03:52:52.455Z,9.58
2017-10-21T03:54:05.113Z,9.58
2017-10-21T03:55:17.725Z,9.67
2017-10-21T03:56:30.351Z,9.64
2017-10-21T03:57:42.329Z,9.67
2017-10-21T03:58:54.643Z,9.69
2017-10-21T04:00:07.005Z,9.72
2017-10-21T04:01:19.638Z,9.72
2017-10-21T04:02:31.921Z,9.72
2017-10-21T04:03:44.551Z,9.76
2017-10-21T04:04:57.186Z,9.69
2017-10-21T04:06:09.815Z,9.72
2017-10-21T04:07:22.431Z,9.8
2017-10-21T04:08:35.076Z,9.73
2017-10-21T04:09:47.732Z,9.74
2017-10-21T04:11:00.346Z,9.74
2017-10-21T04:12:12.332Z,9.76
2017-10-21T04:13:24.956Z,9.72
2017-10-21T04:14:37.617Z,9.77
2017-10-21T04:15:50.252Z,9.77
2017-10-21T04:17:02.889Z,9.72
2017-10-21T04:18:15.189Z,9.82
2017-10-21T04:19:27.837Z,9.81
2017-10-21T04:20:40.460Z,9.8
2017-10-21T04:21:53.100Z,9.81
2017-10-21T04:23:05.422Z,9.82
2017-10-21T04:24:18.070Z,9.88
2017-10-21T04:25:30.371Z,9.84
2017-10-21T04:26:43.294Z,9.8
2017-10-21T04:27:55.590Z,9.85
2017-10-21T04:29:07.912Z,9.92
2017-10-21T04:30:20.568Z,9.88
2017-10-21T04:31:33.466Z,9.88
2017-10-21T04:32:45.782Z,9.88
2017-10-21T04:33:58.418Z,9.91
2017-10-21T04:35:11.061Z,9.92
2017-10-21T04:36:23.712Z,9.9
2017-10-21T04:37:36.342Z,9.91
2017-10-21T04:38:48.318Z,9.91
2017-10-21T04:40:00.636Z,9.85
2017-10-21T04:41:13.259Z,9.84
2017-10-21T04:42:25.239Z,9.87
2017-10-21T04:43:37.868Z,9.88
2017-10-21T04:44:50.172Z,9.91
2017-10-21T04:46:02.816Z,9.91
2017-10-21T04:47:15.433Z,9.87
2017-10-21T04:48:28.087Z,9.84
2017-10-21T04:49:40.750Z,9.91
2017-10-21T04:50:53.059Z,9.82
2017-10-21T04:52:05.375Z,9.82
2017-10-21T04:53:17.993Z,9.77
2017-10-21T04:54:30.621Z,9.77
2017-10-21T04:55:43.258Z,9.74
2017-10-21T04:56:55.904Z,9.84
2017-10-21T04:58:08.230Z,9.81
2017-10-21T04:59:20.902Z,9.76
2017-10-21T05:00:33.555Z,9.7
2017-10-21T05:01:46.208Z,9.72
2017-10-21T05:02:58.839Z,9.74
2017-10-21T05:04:11.406Z,9.76
2017-10-21T05:05:24.065Z,9.7
2017-10-21T05:06:36.405Z,9.7
2017-10-21T05:07:49.038Z,9.7
2017-10-21T05:09:01.360Z,9.73
2017-10-21T05:10:13.989Z,9.72
2017-10-21T05:11:26.651Z,9.72
2017-10-21T05:12:38.956Z,9.72
2017-10-21T05:13:51.570Z,9.72
2017-10-21T05:15:04.205Z,9.72
2017-10-21T05:16:16.512Z,9.72
2017-10-21T05:17:29.179Z,9.73
2017-10-21T05:18:41.829Z,9.8
2017-10-21T05:19:53.798Z,9.76
2017-10-21T05:21:06.470Z,9.72
2017-10-21T05:22:18.792Z,9.72
2017-10-21T05:23:31.407Z,9.77
2017-10-21T05:24:43.761Z,9.76
2017-10-21T05:25:56.073Z,9.74
2017-10-21T05:27:08.393Z,9.77
2017-10-21T05:28:21.059Z,9.7
2017-10-21T05:29:33.370Z,9.74
2017-10-21T05:30:46.001Z,9.76
2017-10-21T05:31:58.643Z,9.8
2017-10-21T05:33:10.951Z,9.72
2017-10-21T05:34:23.592Z,9.74
2017-10-21T05:35:36.216Z,9.76
2017-10-21T05:36:48.862Z,9.77
2017-10-21T05:38:01.137Z,9.76
2017-10-21T05:39:13.758Z,9.74
2017-10-21T05:40:26.364Z,9.72
2017-10-21T05:41:38.993Z,9.77
2017-10-21T05:42:51.658Z,9.74
2017-10-21T05:44:03.962Z,9.81
2017-10-21T05:45:16.270Z,9.8
2017-10-21T05:46:28.895Z,9.8
2017-10-21T05:47:41.548Z,9.73
2017-10-21T05:48:53.847Z,9.81
2017-10-21T05:50:06.482Z,9.85
2017-10-21T05:51:19.116Z,9.82
2017-10-21T05:52:31.406Z,9.81
2017-10-21T05:53:43.722Z,9.9
2017-10-21T05:54:56.040Z,9.88
2017-10-21T05:56:08.342Z,9.84
2017-10-21T05:57:20.960Z,9.92
2017-10-21T05:58:33.577Z,9.85
2017-10-21T05:59:45.586Z,9.91
2017-10-21T06:00:57.879Z,9.88
2017-10-21T06:02:10.196Z,9.91
2017-10-21T06:03:22.496Z,9.94
2017-10-21T06:04:34.815Z,9.9
2017-10-21T06:05:47.460Z,9.91
2017-10-21T06:07:00.095Z,9.9
2017-10-21T06:08:12.716Z,9.91
2017-10-21T06:09:25.045Z,9.91
2017-10-21T06:10:37.015Z,9.91
2017-10-21T06:11:49.341Z,9.94
2017-10-21T06:13:01.634Z,9.99
2017-10-21T06:14:13.956Z,9.99
2017-10-21T06:15:25.955Z,10.03
2017-10-21T06:16:38.246Z,9.97
2017-10-21T06:17:50.890Z,9.99
2017-10-21T06:19:03.524Z,9.94
2017-10-21T06:20:15.498Z,10.03
2017-10-21T06:21:27.502Z,10.09
2017-10-21T06:22:39.798Z,10.09
2017-10-21T06:23:52.417Z,10.15
2017-10-21T06:25:04.738Z,10.1
2017-10-21T06:26:17.384Z,10.15
2017-10-21T06:27:30.027Z,10.12
2017-10-21T06:28:42.324Z,10.2
2017-10-21T06:29:54.945Z,10.07
2017-10-21T06:31:06.936Z,10.13
2017-10-21T06:32:19.291Z,10.21
2017-10-21T06:33:31.905Z,10.21
2017-10-21T06:34:44.243Z,10.17
2017-10-21T06:35:56.545Z,10.24
2017-10-21T06:37:08.876Z,10.27
2017-10-21T06:38:21.492Z,10.3
2017-10-21T06:39:34.124Z,10.3
2017-10-21T06:40:46.433Z,10.33
2017-10-21T06:41:59.006Z,10.41
2017-10-21T06:43:11.629Z,10.36
2017-10-21T06:44:23.945Z,10.38
2017-10-21T06:45:36.305Z,10.3
2017-10-21T06:46:48.934Z,10.39
2017-10-21T06:48:00.931Z,10.46
2017-10-21T06:49:13.591Z,10.49
2017-10-21T06:50:25.271Z,10.49
2017-10-21T06:51:37.891Z,10.43
2017-10-21T06:52:50.217Z,10.41
2017-10-21T06:54:02.842Z,10.51
2017-10-21T06:55:15.468Z,10.51
2017-10-21T06:56:27.430Z,10.61
2017-10-21T06:57:39.751Z,10.57
2017-10-21T06:58:51.769Z,10.57
2017-10-21T07:00:03.762Z,10.51
2017-10-21T07:01:16.421Z,10.55
2017-10-21T07:02:29.077Z,10.67
2017-10-21T07:03:41.078Z,10.59
2017-10-21T07:04:53.690Z,10.62
2017-10-21T07:06:05.340Z,10.71
2017-10-21T07:07:17.629Z,10.69
2017-10-21T07:08:29.924Z,10.68
2017-10-21T07:09:42.553Z,10.68
2017-10-21T07:10:54.878Z,10.69
2017-10-21T07:12:06.872Z,10.65
2017-10-21T07:13:19.501Z,10.64
2017-10-21T07:14:32.064Z,10.64
2017-10-21T07:15:44.698Z,10.62
2017-10-21T07:16:57.321Z,10.76
2017-10-21T07:18:09.639Z,10.75
2017-10-21T07:19:21.988Z,10.75
2017-10-21T07:20:34.313Z,10.82
2017-10-21T07:21:46.635Z,10.83
2017-10-21T07:22:59.255Z,10.87
2017-10-21T07:24:11.552Z,10.89
2017-10-21T07:25:23.896Z,11
2017-10-21T07:26:36.537Z,10.94
2017-10-21T07:27:48.514Z,11.01
2017-10-21T07:29:00.812Z,10.94
2017-10-21T07:30:13.467Z,11.05
2017-10-21T07:31:25.801Z,11.05
2017-10-21T07:32:38.136Z,11.08
2017-10-21T07:33:50.763Z,11.15
2017-10-21T07:35:03.382Z,11.13
2017-10-21T07:36:16.013Z,11.16
2017-10-21T07:37:28.631Z,11.22
2017-10-21T07:38:40.938Z,11.22
2017-10-21T07:39:53.592Z,11.23
2017-10-21T07:41:06.236Z,11.2
2017-10-21T07:42:18.213Z,11.31
2017-10-21T07:43:30.843Z,11.35
2017-10-21T07:44:43.147Z,11.35
2017-10-21T07:45:55.777Z,11.33
2017-10-21T07:47:08.722Z,11.35
2017-10-21T07:48:21.339Z,11.38
2017-10-21T07:49:34.004Z,11.38
2017-10-21T07:50:46.308Z,11.35
2017-10-21T07:51:58.929Z,11.45
2017-10-21T07:53:11.234Z,11.49
2017-10-21T07:54:23.541Z,11.41
2017-10-21T07:55:35.869Z,11.55
2017-10-21T07:56:48.225Z,11.59
2017-10-21T07:58:00.856Z,11.56
2017-10-21T07:59:13.487Z,11.58
2017-10-21T08:00:26.133Z,11.6
2017-10-21T08:01:38.435Z,11.68
2017-10-21T08:02:51.061Z,11.68
2017-10-21T08:04:03.382Z,11.65
2017-10-21T08:05:15.680Z,11.67
2017-10-21T08:06:28.297Z,11.71
2017-10-21T08:07:40.319Z,11.76
2017-10-21T08:08:52.642Z,11.85
2017-10-21T08:10:05.252Z,11.8
2017-10-21T08:11:17.930Z,11.8
2017-10-21T08:12:30.250Z,11.83
2017-10-21T08:13:42.902Z,11.85
2017-10-21T08:14:54.888Z,11.83
2017-10-21T08:16:07.186Z,11.88
2017-10-21T08:17:19.842Z,11.93
2017-10-21T08:18:32.147Z,11.97
2017-10-21T08:19:44.687Z,11.91
2017-10-21T08:20:56.684Z,11.93
2017-10-21T08:22:09.321Z,11.83
2017-10-21T08:23:21.615Z,11.86
2017-10-21T08:24:33.281Z,11.86
2017-10-21T08:25:45.925Z,11.97
2017-10-21T08:26:58.590Z,11.95
2017-10-21T08:28:11.236Z,12
2017-10-21T08:29:23.861Z,11.97
2017-10-21T08:30:36.193Z,11.99
2017-10-21T08:31:48.807Z,11.99
2017-10-21T08:33:01.452Z,11.99
2017-10-21T08:34:13.772Z,12.14
2017-10-21T08:35:26.413Z,12
2017-10-21T08:36:38.407Z,11.99
2017-10-21T08:37:51.031Z,12.02
2017-10-21T08:39:03.357Z,12.1
2017-10-21T08:40:16.006Z,12.07
2017-10-21T08:41:28.646Z,12.14
2017-10-21T08:42:41.314Z,12.1
2017-10-21T08:43:53.633Z,12.02
2017-10-21T08:45:05.642Z,12.02
2017-10-21T08:46:18.271Z,12.12
2017-10-21T08:47:30.895Z,12.14
2017-10-21T08:48:42.900Z,12.11
2017-10-21T08:49:55.245Z,12.17
2017-10-21T08:51:07.236Z,12.05
2017-10-21T08:52:19.565Z,12.07
2017-10-21T08:53:32.174Z,12.12
2017-10-21T08:54:44.498Z,12.08
2017-10-21T08:55:57.142Z,12.02
2017-10-21T08:57:09.789Z,12.02
2017-10-21T08:58:22.456Z,12.11
2017-10-21T08:59:34.447Z,12.15
2017-10-21T09:00:47.101Z,12.08
2017-10-21T09:01:59.725Z,12.2
2017-10-21T09:03:12.635Z,12.18
2017-10-21T09:04:25.284Z,12.17
2017-10-21T09:05:37.917Z,12.2
2017-10-21T09:06:50.536Z,12.25
2017-10-21T09:08:02.824Z,12.26
2017-10-21T09:09:15.159Z,12.26
2017-10-21T09:10:27.463Z,12.29
2017-10-21T09:11:40.117Z,12.36
2017-10-21T09:12:52.756Z,12.36
2017-10-21T09:14:05.379Z,12.33
2017-10-21T09:15:17.692Z,12.35
2017-10-21T09:16:30.337Z,12.37
2017-10-21T09:17:42.946Z,12.4
2017-10-21T09:18:55.245Z,12.39
2017-10-21T09:20:07.856Z,12.43
2017-10-21T09:21:20.166Z,12.44
2017-10-21T09:22:32.794Z,12.4
2017-10-21T09:23:44.797Z,12.4
2017-10-21T09:24:57.092Z,12.39
2017-10-21T09:26:09.759Z,12.45
2017-10-21T09:27:22.426Z,12.45
2017-10-21T09:28:35.044Z,12.4
2017-10-21T09:29:47.038Z,12.43
2017-10-21T09:30:59.681Z,12.43
2017-10-21T09:32:11.659Z,12.4
2017-10-21T09:33:24.283Z,12.51
2017-10-21T09:34:36.634Z,12.47
2017-10-21T09:35:49.291Z,12.44
2017-10-21T09:37:01.624Z,12.48
2017-10-21T09:38:14.246Z,12.55
2017-10-21T09:39:26.257Z,12.55
2017-10-21T09:40:38.231Z,12.62
2017-10-21T09:41:50.857Z,12.5
2017-10-21T09:43:03.175Z,12.61
2017-10-21T09:44:15.808Z,12.5
2017-10-21T09:45:28.456Z,12.61
2017-10-21T09:46:41.104Z,12.61
2017-10-21T09:47:53.430Z,12.65
2017-10-21T09:49:05.729Z,12.68
2017-10-21T09:50:18.364Z,12.65
2017-10-21T09:51:30.347Z,12.62
2017-10-21T09:52:42.993Z,12.66
2017-10-21T09:53:55.648Z,12.63
2017-10-21T09:55:07.955Z,12.66
2017-10-21T09:56:20.606Z,12.66
2017-10-21T09:57:33.220Z,12.68
2017-10-21T09:58:45.537Z,12.7
2017-10-21T09:59:58.156Z,12.73
2017-10-21T10:01:10.517Z,12.75
2017-10-21T10:02:23.208Z,12.73
2017-10-21T10:03:35.538Z,12.8
2017-10-21T10:04:48.167Z,12.76
2017-10-21T10:06:00.816Z,12.7
2017-10-21T10:07:13.453Z,12.9
2017-10-21T10:08:25.799Z,12.69
2017-10-21T10:09:38.121Z,12.75
2017-10-21T10:10:50.423Z,12.76
2017-10-21T10:12:02.717Z,12.8
2017-10-21T10:13:15.364Z,12.78
2017-10-21T10:14:27.637Z,12.78
2017-10-21T10:15:39.944Z,12.83
2017-10-21T10:16:52.253Z,12.83
2017-10-21T10:18:04.900Z,12.83
2017-10-21T10:19:17.140Z,12.84
2017-10-21T10:20:29.779Z,12.9
2017-10-21T10:21:42.138Z,12.88
2017-10-21T10:22:54.457Z,12.88
2017-10-21T10:24:06.446Z,12.93
2017-10-21T10:25:19.088Z,12.94
2017-10-21T10:26:30.788Z,12.94
2017-10-21T10:27:43.412Z,13.06
2017-10-21T10:28:55.742Z,12.95
2017-10-21T10:30:07.771Z,13.06
2017-10-21T10:31:20.417Z,13.02
2017-10-21T10:32:33.049Z,13.01
2017-10-21T10:33:45.718Z,13.02
2017-10-21T10:34:58.040Z,13.08
2017-10-21T10:36:10.354Z,13.08
2017-10-21T10:37:22.673Z,13.16
2017-10-21T10:38:34.643Z,13.16
2017-10-21T10:39:46.640Z,13.16
2017-10-21T10:40:59.517Z,13.17
2017-10-21T10:42:11.486Z,13.06
2017-10-21T10:43:23.471Z,13.12
2017-10-21T10:44:35.757Z,13.11
2017-10-21T10:45:48.053Z,13.13
2017-10-21T10:47:00.665Z,13.16
2017-10-21T10:48:13.301Z,13.12
2017-10-21T10:49:25.935Z,13.19
2017-10-21T10:50:38.247Z,13.11
2017-10-21T10:51:50.556Z,13.05
2017-10-21T10:53:02.851Z,13.17
2017-10-21T10:54:15.496Z,13.19
2017-10-21T10:55:28.158Z,13.09
2017-10-21T10:56:40.824Z,13.17
2017-10-21T10:57:53.449Z,13.12
2017-10-21T10:59:05.753Z,13.26
2017-10-21T11:00:18.050Z,13.11
2017-10-21T11:01:30.683Z,13.26
2017-10-21T11:02:43.594Z,13.26
2017-10-21T11:03:55.931Z,13.27
2017-10-21T11:05:08.580Z,13.26
2017-10-21T11:06:20.565Z,13.33
2017-10-21T11:07:33.222Z,13.3
2017-10-21T11:08:45.210Z,13.33
2017-10-21T11:09:57.885Z,13.33
2017-10-21T11:11:09.868Z,13.37
2017-10-21T11:12:21.872Z,13.33
2017-10-21T11:13:33.860Z,13.43
2017-10-21T11:14:46.514Z,13.47
2017-10-21T11:15:59.184Z,13.52
2017-10-21T11:17:11.854Z,13.46
2017-10-21T11:18:24.172Z,13.49
2017-10-21T11:19:36.841Z,13.54
2017-10-21T11:20:49.171Z,13.54
2017-10-21T11:22:01.795Z,13.57
2017-10-21T11:23:14.438Z,13.55
2017-10-21T11:24:26.755Z,13.55
2017-10-21T11:25:39.395Z,13.57
2017-10-21T11:26:52.045Z,13.52
2017-10-21T11:28:03.724Z,13.57
2017-10-21T11:29:15.719Z,13.61
2017-10-21T11:30:28.316Z,13.5
2017-10-21T11:31:40.670Z,13.54
2017-10-21T11:32:52.956Z,13.58
2017-10-21T11:34:04.627Z,13.62
2017-10-21T11:35:16.932Z,13.58
2017-10-21T11:36:29.561Z,13.55
2017-10-21T11:37:41.241Z,13.6
2017-10-21T11:38:53.901Z,13.6
2017-10-21T11:40:06.222Z,13.67
2017-10-21T11:41:18.251Z,13.54
2017-10-21T11:42:30.897Z,13.61
2017-10-21T11:43:43.242Z,13.57
2017-10-21T11:44:55.559Z,13.55
2017-10-21T11:46:07.554Z,13.58
2017-10-21T11:47:19.530Z,13.58
2017-10-21T11:48:31.514Z,13.5
2017-10-21T11:49:44.138Z,13.58
2017-10-21T11:50:56.759Z,13.67
2017-10-21T11:52:09.084Z,13.57
2017-10-21T11:53:21.402Z,13.73
2017-10-21T11:54:34.045Z,13.57
2017-10-21T11:55:46.672Z,13.65
2017-10-21T11:56:58.968Z,13.71
2017-10-21T11:58:11.633Z,13.65
2017-10-21T11:59:24.303Z,13.65
2017-10-21T12:00:36.652Z,13.7
2017-10-21T12:01:48.971Z,13.65
2017-10-21T12:03:01.614Z,13.64
2017-10-21T12:04:14.242Z,13.61
2017-10-21T12:05:26.881Z,13.68
2017-10-21T12:06:39.506Z,13.67
2017-10-21T12:07:51.497Z,13.64
2017-10-21T12:09:03.500Z,13.68
2017-10-21T12:10:16.144Z,13.65
2017-10-21T12:11:28.777Z,13.76
2017-10-21T12:12:41.450Z,13.83
2017-10-21T12:13:54.059Z,13.73
2017-10-21T12:15:06.726Z,13.85
2017-10-21T12:16:19.397Z,13.8
2017-10-21T12:17:31.687Z,13.82
2017-10-21T12:18:44.026Z,13.93
2017-10-21T12:19:56.332Z,13.85
2017-10-21T12:21:08.333Z,13.94
2017-10-21T12:22:20.653Z,13.89
2017-10-21T12:23:33.274Z,13.89
2017-10-21T12:24:45.585Z,13.87
2017-10-21T12:25:57.619Z,13.93
2017-10-21T12:27:10.274Z,13.86
2017-10-21T12:28:22.594Z,13.94
2017-10-21T12:29:35.222Z,13.89
2017-10-21T12:30:47.523Z,13.98
2017-10-21T12:32:00.185Z,13.95
2017-10-21T12:33:12.809Z,13.87
2017-10-21T12:34:25.469Z,13.89
2017-10-21T12:35:37.768Z,13.95
2017-10-21T12:36:50.081Z,14.03
2017-10-21T12:38:02.392Z,13.97
2017-10-21T12:39:15.031Z,13.94
2017-10-21T12:40:27.913Z,13.98
2017-10-21T12:41:40.575Z,14
2017-10-21T12:42:52.892Z,14.03
2017-10-21T12:44:04.894Z,13.94
2017-10-21T12:45:17.223Z,14
2017-10-21T12:46:29.534Z,13.98
2017-10-21T12:47:41.511Z,13.97
2017-10-21T12:48:54.179Z,13.85
2017-10-21T12:50:06.491Z,13.94
2017-10-21T12:51:19.107Z,13.86
2017-10-21T12:52:31.765Z,13.89
2017-10-21T12:53:44.067Z,13.82
2017-10-21T12:54:56.683Z,13.94
2017-10-21T12:56:09.017Z,13.89
2017-10-21T12:57:21.327Z,13.91
2017-10-21T12:58:33.944Z,13.83
2017-10-21T12:59:46.263Z,13.91
2017-10-21T13:00:58.884Z,13.87
2017-10-21T13:02:10.800Z,13.87
2017-10-21T13:03:23.125Z,13.97
2017-10-21T13:04:35.118Z,13.94
2017-10-21T13:05:47.759Z,14.04
2017-10-21T13:07:00.388Z,14.04
2017-10-21T13:08:12.703Z,13.98
2017-10-21T13:09:25.351Z,14.13
2017-10-21T13:10:37.678Z,14.12
2017-10-21T13:11:49.669Z,14.11
2017-10-21T13:13:02.004Z,14.2
2017-10-21T13:14:14.315Z,14.22
2017-10-21T13:15:26.933Z,14.26
2017-10-21T13:16:38.926Z,14.26
2017-10-21T13:17:50.599Z,14.37
2017-10-21T13:19:02.899Z,14.28
2017-10-21T13:20:15.243Z,14.23
2017-10-21T13:21:27.852Z,14.37
2017-10-21T13:22:40.177Z,14.33
2017-10-21T13:23:52.498Z,14.31
2017-10-21T13:25:04.815Z,14.28
2017-10-21T13:26:17.135Z,14.25
2017-10-21T13:27:29.459Z,14.36
2017-10-21T13:28:42.108Z,14.26
2017-10-21T13:29:54.767Z,14.28
2017-10-21T13:31:07.379Z,14.23
2017-10-21T13:32:19.998Z,14.23
2017-10-21T13:33:32.304Z,14.23
2017-10-21T13:34:44.958Z,14.16
2017-10-21T13:35:57.603Z,14.16
2017-10-21T13:37:09.265Z,14.22
2017-10-21T13:38:21.900Z,14.23
2017-10-21T13:39:34.597Z,14.25
2017-10-21T13:40:46.918Z,14.12
2017-10-21T13:41:59.206Z,14.2
2017-10-21T13:43:11.219Z,14.22
2017-10-21T13:44:23.198Z,14.19
2017-10-21T13:45:35.847Z,14.2
2017-10-21T13:46:48.472Z,14.26
2017-10-21T13:48:01.117Z,14.13
2017-10-21T13:49:13.441Z,14.2
2017-10-21T13:50:25.748Z,14.2
2017-10-21T13:51:38.406Z,14.05
2017-10-21T13:52:51.036Z,14.16
2017-10-21T13:54:03.315Z,14.11
2017-10-21T13:55:15.638Z,14.07
2017-10-21T13:56:27.635Z,14.08
2017-10-21T13:57:40.232Z,13.98
2017-10-21T13:58:52.545Z,13.95
2017-10-21T14:00:05.176Z,13.95
2017-10-21T14:01:17.481Z,13.98
2017-10-21T14:02:29.780Z,13.95
2017-10-21T14:03:42.411Z,13.97
2017-10-21T14:04:54.712Z,13.98
2017-10-21T14:06:07.049Z,13.98
2017-10-21T14:07:19.698Z,13.98
2017-10-21T14:08:32.316Z,13.87
2017-10-21T14:09:44.296Z,13.94
2017-10-21T14:10:56.307Z,13.95
2017-10-21T14:12:08.649Z,13.98
2017-10-21T14:13:21.291Z,13.93
2017-10-21T14:14:33.285Z,13.91
2017-10-21T14:15:45.606Z,13.82
2017-10-21T14:16:58.239Z,13.95
2017-10-21T14:18:11.145Z,13.93
2017-10-21T14:19:22.819Z,13.86
2017-10-21T14:20:34.824Z,13.89
2017-10-21T14:21:47.471Z,13.86
2017-10-21T14:22:59.791Z,13.85
2017-10-21T14:24:12.435Z,13.8
2017-10-21T14:25:25.093Z,13.8
2017-10-21T14:26:37.049Z,13.75
2017-10-21T14:27:49.370Z,13.71
2017-10-21T14:29:01.384Z,13.68
2017-10-21T14:30:13.712Z,13.67
2017-10-21T14:31:26.335Z,13.7
2017-10-21T14:32:38.679Z,13.7
2017-10-21T14:33:51.008Z,13.55
2017-10-21T14:35:03.644Z,13.55
2017-10-21T14:36:15.981Z,13.54
2017-10-21T14:37:27.961Z,13.57
2017-10-21T14:38:39.661Z,13.6
2017-10-21T14:39:51.628Z,13.6
2017-10-21T14:41:03.611Z,13.54
2017-10-21T14:42:16.236Z,13.49
2017-10-21T14:43:28.568Z,13.55
2017-10-21T14:44:41.191Z,13.47
2017-10-21T14:45:53.507Z,13.5
2017-10-21T14:47:06.148Z,13.47
2017-10-21T14:48:18.791Z,13.46
2017-10-21T14:49:30.800Z,13.46
2017-10-21T14:50:43.102Z,13.42
2017-10-21T14:51:54.457Z,13.39
2017-10-21T14:53:06.766Z,13.33
2017-10-21T14:54:19.077Z,13.27
2017-10-21T14:55:31.388Z,13.24
2017-10-21T14:56:43.720Z,13.26
2017-10-21T14:57:56.383Z,13.26
2017-10-21T14:59:09.021Z,13.24
2017-10-21T15:00:21.349Z,13.16
2017-10-21T15:01:33.690Z,13.17
2017-10-21T15:02:46.351Z,13.16
2017-10-21T15:03:58.990Z,13.2
2017-10-21T15:05:11.680Z,13.17
2017-10-21T15:06:24.300Z,13.11
2017-10-21T15:07:36.901Z,13.12
2017-10-21T15:08:48.874Z,13.11
2017-10-21T15:10:01.512Z,13.12
2017-10-21T15:11:14.167Z,13.01
2017-10-21T15:12:26.481Z,13.02
2017-10-21T15:13:39.108Z,13.03
2017-10-21T15:14:51.755Z,13.01
2017-10-21T15:16:04.413Z,12.95
2017-10-21T15:17:16.692Z,12.95
2017-10-21T15:18:29.010Z,12.9
2017-10-21T15:19:41.633Z,12.86
2017-10-21T15:20:54.283Z,12.86
2017-10-21T15:22:06.904Z,12.83
2017-10-21T15:23:18.891Z,12.81
2017-10-21T15:24:30.887Z,12.81
2017-10-21T15:25:43.559Z,12.75
2017-10-21T15:26:56.203Z,12.8
2017-10-21T15:28:08.517Z,12.75
2017-10-21T15:29:20.494Z,12.73
2017-10-21T15:30:32.820Z,12.75
2017-10-21T15:31:45.470Z,12.75
2017-10-21T15:32:57.770Z,12.75
2017-10-21T15:34:10.398Z,12.72
2017-10-21T15:35:22.729Z,12.72
2017-10-21T15:36:35.390Z,12.66
2017-10-21T15:37:47.055Z,12.8
2017-10-21T15:38:59.362Z,12.69
2017-10-21T15:40:12.006Z,12.66
2017-10-21T15:41:23.998Z,12.69
2017-10-21T15:42:36.277Z,12.68
2017-10-21T15:43:48.906Z,12.7